Time;durP1;ratioP1;P1;durP2;ratioP2;P2;SDS_P1;SDS_P2;PMS_P1;PMS_P2;Temp;Humidity;BMP_temperature;BMP_pressure;BME280_temperature;BME280_humidity;BME280_pressure;Samples;Min_cycle;Max_cycle;Signal;HPM_P1;HPM_P2
2024/04/09 00:00:32;;;;;;;6.25;3.97;;;17.00;99.90;;;;;;5078606;28;20486;-89
2024/04/09 00:02:57;;;;;;;7.03;4.10;;;17.00;99.90;;;;;;5078729;28;20020;-89
2024/04/09 00:05:27;;;;;;;5.60;3.70;;;17.00;99.90;;;;;;5089214;28;20031;-88
2024/04/09 00:07:52;;;;;;;6.97;3.70;;;17.00;99.90;;;;;;5078560;28;20024;-88
2024/04/09 00:10:19;;;;;;;6.82;3.88;;;17.00;99.90;;;;;;5097508;28;20058;-86
2024/04/09 00:12:46;;;;;;;9.77;4.10;;;17.00;99.90;;;;;;5093950;28;20020;-87
2024/04/09 00:15:12;;;;;;;6.72;3.80;;;17.00;99.90;;;;;;5080320;28;20040;-88
2024/04/09 00:17:56;;;;;;;5.65;3.70;;;17.00;99.90;;;;;;5064048;28;20039;-86
2024/04/09 00:20:24;;;;;;;6.03;4.22;;;16.90;99.90;;;;;;5078611;28;20384;-89
2024/04/09 00:22:58;;;;;;;7.15;4.10;;;16.90;99.90;;;;;;5055194;28;20456;-89
2024/04/09 00:25:24;;;;;;;5.90;4.20;;;16.90;99.90;;;;;;5077969;28;20478;-89
2024/04/09 00:27:52;;;;;;;7.65;4.45;;;16.90;99.90;;;;;;5061644;28;20099;-88
2024/04/09 00:30:22;;;;;;;7.00;4.03;;;16.90;99.90;;;;;;5085057;28;20064;-88
2024/04/09 00:32:51;;;;;;;5.78;4.05;;;16.90;99.90;;;;;;5058373;28;20115;-89
2024/04/09 00:35:21;;;;;;;6.60;4.18;;;16.90;99.90;;;;;;5090734;28;20036;-86
2024/04/09 00:37:51;;;;;;;8.10;4.32;;;16.90;99.90;;;;;;5076147;28;20024;-87
2024/04/09 00:40:19;;;;;;;6.63;4.10;;;16.90;99.90;;;;;;5058242;28;20033;-88
2024/04/09 00:42:49;;;;;;;7.97;4.43;;;16.80;99.90;;;;;;5083779;28;20008;-87
2024/04/09 00:45:17;;;;;;;7.40;4.10;;;16.80;99.90;;;;;;5061980;28;20028;-88
2024/04/09 00:47:43;;;;;;;5.95;4.40;;;16.90;99.90;;;;;;5095456;28;20027;-87
2024/04/09 00:50:11;;;;;;;7.50;3.67;;;16.80;99.90;;;;;;5077613;28;20077;-87
2024/04/09 00:52:42;;;;;;;5.85;4.20;;;16.80;99.90;;;;;;5062689;28;20040;-88
2024/04/09 00:55:11;;;;;;;9.57;4.25;;;16.80;99.90;;;;;;5092635;28;20057;-88
2024/04/09 00:57:39;;;;;;;6.07;4.13;;;16.80;99.90;;;;;;5098778;28;20016;-88
2024/04/09 01:00:07;;;;;;;5.00;4.10;;;16.80;99.90;;;;;;5079655;28;20008;-86
2024/04/09 01:02:33;;;;;;;5.85;3.92;;;16.80;99.90;;;;;;5100936;28;20008;-88
2024/04/09 01:05:00;;;;;;;4.75;3.83;;;16.80;99.90;;;;;;5084984;28;20032;-88
2024/04/09 01:07:26;;;;;;;7.72;4.25;;;16.70;99.90;;;;;;5100232;28;20058;-89
2024/04/09 01:09:52;;;;;;;7.55;4.40;;;16.70;99.90;;;;;;5063257;28;20032;-88
2024/04/09 01:12:18;;;;;;;6.32;4.15;;;16.80;99.90;;;;;;5097023;28;20420;-88
2024/04/09 01:14:43;;;;;;;5.80;3.70;;;16.70;99.90;;;;;;5060249;28;20103;-89
2024/04/09 01:17:10;;;;;;;5.78;4.05;;;16.70;99.90;;;;;;5058889;28;20036;-89
2024/04/09 01:19:35;;;;;;;6.35;3.90;;;16.70;99.90;;;;;;5062892;28;20066;-89
2024/04/09 01:22:01;;;;;;;7.43;4.25;;;16.70;99.90;;;;;;5077530;28;20074;-88
2024/04/09 01:24:28;;;;;;;6.43;4.55;;;16.70;99.90;;;;;;5085538;28;20032;-89
2024/04/09 01:26:54;;;;;;;7.40;4.32;;;16.70;99.90;;;;;;5063258;28;20476;-90
2024/04/09 01:29:21;;;;;;;7.68;4.10;;;16.70;99.90;;;;;;5078205;28;20020;-88
2024/04/09 01:31:48;;;;;;;4.60;3.78;;;16.60;99.90;;;;;;5058084;28;20033;-88
2024/04/09 01:34:15;;;;;;;6.68;4.25;;;16.60;99.90;;;;;;5075683;28;20039;-86
2024/04/09 01:36:45;;;;;;;5.50;4.10;;;16.60;99.90;;;;;;5077012;28;20031;-86
2024/04/09 01:39:14;;;;;;;5.38;3.90;;;16.60;99.90;;;;;;5094542;28;20128;-86
2024/04/09 01:41:41;;;;;;;5.93;3.53;;;16.60;99.90;;;;;;5095008;28;20050;-85
2024/04/09 01:44:07;;;;;;;5.65;3.80;;;16.60;99.90;;;;;;5059927;28;20031;-88
2024/04/09 01:46:33;;;;;;;5.80;3.13;;;16.60;99.90;;;;;;5094755;28;20459;-86
2024/04/09 01:48:59;;;;;;;6.05;3.25;;;16.60;99.90;;;;;;5076297;28;20032;-84
2024/04/09 01:51:25;;;;;;;4.45;3.08;;;16.50;99.90;;;;;;5075564;28;20050;-87
2024/04/09 01:53:51;;;;;;;5.05;3.42;;;16.50;99.90;;;;;;5076335;28;20028;-87
2024/04/09 01:56:17;;;;;;;5.45;3.58;;;16.50;99.90;;;;;;5059747;28;20173;-85
2024/04/09 01:58:43;;;;;;;4.57;2.83;;;16.50;99.90;;;;;;5075893;28;20107;-85
2024/04/09 02:01:12;;;;;;;5.32;2.80;;;16.50;99.90;;;;;;5094209;28;20488;-85
2024/04/09 02:03:39;;;;;;;5.13;2.40;;;16.50;99.90;;;;;;5060006;28;20190;-86
2024/04/09 02:06:16;;;;;;;5.38;2.53;;;16.50;99.90;;;;;;5094519;28;20107;-86
2024/04/09 02:08:42;;;;;;;3.33;2.10;;;16.50;99.90;;;;;;5076260;28;20458;-87
2024/04/09 02:11:12;;;;;;;2.72;2.00;;;16.50;99.90;;;;;;5076773;28;20035;-86
2024/04/09 02:13:40;;;;;;;2.33;1.70;;;16.50;99.90;;;;;;5076473;28;20621;-85
2024/04/09 02:16:11;;;;;;;4.75;1.90;;;16.50;99.90;;;;;;5076182;28;20028;-85
2024/04/09 02:18:37;;;;;;;;;;;16.40;99.90;;;;;;5076697;28;20412;-87
2024/04/09 02:21:07;;;;;;;3.13;1.52;;;16.40;99.90;;;;;;5094274;28;19907;-84
2024/04/09 02:23:36;;;;;;;2.38;1.55;;;16.40;99.90;;;;;;5076132;28;20027;-86
2024/04/09 02:26:02;;;;;;;4.47;1.60;;;16.40;99.90;;;;;;5076079;28;20485;-85
2024/04/09 02:28:28;;;;;;;4.30;1.58;;;16.30;99.90;;;;;;5094344;28;20081;-86
2024/04/09 02:30:55;;;;;;;4.07;1.67;;;16.30;99.90;;;;;;5075848;28;20407;-86
2024/04/09 02:33:21;;;;;;;1.45;1.30;;;16.30;99.90;;;;;;5059653;28;20012;-86
2024/04/09 02:35:56;;;;;;;3.80;1.77;;;16.30;99.90;;;;;;5060030;28;20028;-86
2024/04/09 02:38:24;;;;;;;2.83;1.45;;;16.30;99.90;;;;;;5076369;28;20371;-86
2024/04/09 02:40:50;;;;;;;3.38;1.58;;;16.30;99.90;;;;;;5077110;28;20024;-86
2024/04/09 02:43:16;;;;;;;1.95;1.67;;;16.20;99.90;;;;;;5047070;28;20058;-84
2024/04/09 02:45:42;;;;;;;3.55;1.60;;;16.20;99.90;;;;;;5101150;28;20013;-86
2024/04/09 02:48:08;;;;;;;3.63;1.42;;;16.20;99.90;;;;;;5084340;28;20015;-85
2024/04/09 02:50:33;;;;;;;2.55;1.45;;;16.20;99.90;;;;;;5117999;28;20040;-86
2024/04/09 02:52:59;;;;;;;2.90;1.20;;;16.20;99.90;;;;;;5100121;28;20051;-85
2024/04/09 02:55:25;;;;;;;2.75;1.20;;;16.20;99.90;;;;;;5097941;28;20028;-85
2024/04/09 02:57:50;;;;;;;2.45;1.40;;;16.20;99.90;;;;;;5076414;28;20023;-85
2024/04/09 03:00:19;;;;;;;2.10;1.25;;;16.20;99.90;;;;;;5076401;28;20024;-85
2024/04/09 03:02:53;;;;;;;2.47;1.20;;;16.20;99.90;;;;;;5076614;28;20024;-86
2024/04/09 03:05:27;;;;;;;2.80;1.38;;;16.20;99.90;;;;;;5076081;28;20470;-86
2024/04/09 03:07:52;;;;;;;2.28;1.30;;;16.10;99.90;;;;;;5076703;28;20490;-86
2024/04/09 03:10:21;;;;;;;2.03;1.38;;;16.00;99.90;;;;;;5075868;28;20063;-87
2024/04/09 03:12:48;;;;;;;4.13;1.40;;;16.00;99.90;;;;;;5079264;28;20081;-87
2024/04/09 03:15:14;;;;;;;3.72;1.27;;;16.00;99.90;;;;;;5063251;28;20035;-86
2024/04/09 03:17:43;;;;;;;3.92;1.67;;;16.00;99.90;;;;;;5097121;28;20071;-87
2024/04/09 03:20:10;;;;;;;4.50;1.40;;;16.00;99.90;;;;;;5079639;28;20051;-86
2024/04/09 03:22:39;;;;;;;2.17;1.60;;;16.00;99.90;;;;;;5095881;28;20024;-86
2024/04/09 03:25:06;;;;;;;3.47;1.40;;;16.00;99.90;;;;;;5078890;28;20081;-85
2024/04/09 03:27:38;;;;;;;3.58;1.33;;;15.90;99.90;;;;;;5079179;28;20455;-85
2024/04/09 03:30:04;;;;;;;2.05;1.40;;;16.00;99.90;;;;;;5062233;28;20091;-86
2024/04/09 03:32:30;;;;;;;3.03;1.58;;;15.90;99.90;;;;;;5062139;28;20088;-86
2024/04/09 03:34:56;;;;;;;2.53;1.20;;;15.90;99.90;;;;;;5062397;28;20024;-85
2024/04/09 03:37:22;;;;;;;3.85;1.50;;;16.00;99.90;;;;;;5079398;28;20073;-85
2024/04/09 03:39:48;;;;;;;3.42;1.55;;;15.90;99.90;;;;;;5062256;28;20109;-86
2024/04/09 03:42:14;;;;;;;3.35;1.50;;;15.90;99.90;;;;;;5079189;28;20016;-86
2024/04/09 03:44:39;;;;;;;4.85;2.08;;;15.90;99.90;;;;;;5079008;28;20562;-86
2024/04/09 03:47:05;;;;;;;3.30;2.03;;;15.90;99.90;;;;;;5097452;28;20024;-85
2024/04/09 03:49:33;;;;;;;3.00;2.00;;;15.90;99.90;;;;;;5062001;28;20089;-85
2024/04/09 03:51:58;;;;;;;4.00;2.72;;;15.90;99.90;;;;;;5079536;28;20040;-86
2024/04/09 03:54:27;;;;;;;4.00;2.85;;;15.90;99.90;;;;;;5045717;28;20525;-85
2024/04/09 03:56:56;;;;;;;4.00;2.92;;;15.90;99.90;;;;;;5096894;28;20035;-85
2024/04/09 03:59:25;;;;;;;4.15;3.30;;;15.90;99.90;;;;;;5061743;28;20097;-87
2024/04/09 04:01:50;;;;;;;5.43;3.65;;;15.90;99.90;;;;;;5063293;28;20081;-87
2024/04/09 04:04:17;;;;;;;7.45;3.70;;;15.90;99.90;;;;;;5046569;28;20024;-87
2024/04/09 04:06:43;;;;;;;4.68;3.58;;;16.00;99.90;;;;;;5047123;28;20513;-86
2024/04/09 04:09:09;;;;;;;4.20;3.45;;;16.00;99.90;;;;;;5079547;28;20115;-86
2024/04/09 04:11:35;;;;;;;4.63;3.70;;;16.00;99.90;;;;;;5062445;28;20361;-86
2024/04/09 04:14:01;;;;;;;5.47;3.70;;;16.00;99.90;;;;;;5079026;28;20016;-85
2024/04/09 04:16:27;;;;;;;5.35;4.00;;;16.00;99.90;;;;;;5062450;28;20028;-85
2024/04/09 04:18:56;;;;;;;4.90;3.80;;;16.00;99.90;;;;;;5061964;28;20024;-85
2024/04/09 04:21:23;;;;;;;5.22;4.53;;;16.00;99.90;;;;;;5078995;28;20031;-87
2024/04/09 04:23:51;;;;;;;5.95;4.18;;;16.00;99.90;;;;;;5062632;28;20035;-87
2024/04/09 04:26:24;;;;;;;6.32;5.38;;;16.00;99.90;;;;;;5084274;28;20020;-85
2024/04/09 04:28:52;;;;;;;8.02;4.90;;;15.90;99.90;;;;;;5120763;28;20008;-87
2024/04/09 04:31:18;;;;;;;6.75;4.80;;;15.90;99.90;;;;;;5102973;28;20070;-86
2024/04/09 04:33:45;;;;;;;5.90;5.15;;;15.80;99.90;;;;;;5102845;28;20054;-85
2024/04/09 04:36:12;;;;;;;7.55;5.75;;;15.80;99.90;;;;;;5083979;28;20111;-85
2024/04/09 04:38:40;;;;;;;7.07;6.05;;;15.80;99.90;;;;;;5079202;28;20042;-86
2024/04/09 04:41:06;;;;;;;6.55;5.95;;;15.80;99.90;;;;;;5095886;28;20337;-86
2024/04/09 04:43:32;;;;;;;8.32;6.47;;;15.80;99.90;;;;;;5061012;28;20059;-88
2024/04/09 04:45:59;;;;;;;6.80;6.15;;;15.80;99.90;;;;;;5095406;28;20024;-87
2024/04/09 04:48:25;;;;;;;7.80;6.20;;;15.70;99.90;;;;;;5060706;28;20024;-85
2024/04/09 04:50:52;;;;;;;7.35;6.18;;;15.70;99.90;;;;;;5095214;28;20083;-85
2024/04/09 04:53:18;;;;;;;6.45;5.53;;;15.60;99.90;;;;;;5077570;28;20024;-87
2024/04/09 04:55:43;;;;;;;6.72;5.50;;;15.60;99.90;;;;;;5077332;28;20161;-86
2024/04/09 04:58:09;;;;;;;6.82;5.20;;;15.60;99.90;;;;;;5096103;28;20043;-86
2024/04/09 05:00:39;;;;;;;5.43;4.78;;;15.60;99.90;;;;;;5060699;28;20028;-88
2024/04/09 05:03:05;;;;;;;6.13;5.15;;;15.60;99.90;;;;;;5077761;28;20027;-87
2024/04/09 05:05:31;;;;;;;5.82;4.60;;;15.60;99.90;;;;;;5077279;28;20016;-86
2024/04/09 05:07:57;;;;;;;7.45;5.32;;;15.60;99.90;;;;;;5077582;28;20020;-85
2024/04/09 05:10:23;;;;;;;5.93;4.68;;;15.50;99.90;;;;;;5076990;28;20028;-85
2024/04/09 05:12:54;;;;;;;6.18;5.40;;;15.60;99.90;;;;;;5060643;28;20114;-87
2024/04/09 05:15:20;;;;;;;;;;;15.60;99.90;;;;;;5096309;28;20111;-85
2024/04/09 05:17:47;;;;;;;5.10;4.60;;;15.50;99.90;;;;;;5076604;28;20387;-88
2024/04/09 05:20:14;;;;;;;6.88;5.93;;;15.50;99.90;;;;;;5076870;28;20034;-86
2024/04/09 05:22:42;;;;;;;7.32;6.63;;;15.50;99.90;;;;;;5094656;28;20031;-86
2024/04/09 05:25:12;;;;;;;7.22;6.53;;;15.50;99.90;;;;;;5076647;28;20024;-85
2024/04/09 05:27:38;;;;;;;7.75;6.95;;;15.50;99.90;;;;;;5077023;28;20039;-87
2024/04/09 05:30:07;;;;;;;7.90;6.43;;;15.50;99.90;;;;;;5076839;28;20040;-86
2024/04/09 05:32:38;;;;;;;8.50;7.28;;;15.50;99.90;;;;;;5077086;28;20027;-88
2024/04/09 05:35:07;;;;;;;9.10;7.45;;;15.50;99.90;;;;;;5077161;28;20048;-88
2024/04/09 05:37:33;;;;;;;7.82;6.95;;;15.50;99.90;;;;;;5060081;28;20380;-87
2024/04/09 05:40:01;;;;;;;7.00;5.38;;;15.40;99.90;;;;;;5043704;28;20123;-86
2024/04/09 05:42:27;;;;;;;6.63;5.55;;;15.40;99.90;;;;;;5076990;28;20050;-87
2024/04/09 05:44:52;;;;;;;5.88;5.10;;;15.40;99.90;;;;;;5059845;28;20547;-88
2024/04/09 05:47:18;;;;;;;7.38;4.60;;;15.40;99.90;;;;;;5076906;28;20028;-87
2024/04/09 05:49:45;;;;;;;4.93;4.43;;;15.30;99.90;;;;;;5076508;28;20118;-87
2024/04/09 05:52:11;;;;;;;3.97;3.55;;;15.30;99.90;;;;;;5076599;28;20135;-87
2024/04/09 05:54:42;;;;;;;3.70;3.35;;;15.20;99.90;;;;;;5060404;28;20476;-87
2024/04/09 05:57:08;;;;;;;;;;;15.20;99.90;;;;;;5095478;28;20027;-86
2024/04/09 05:59:34;;;;;;;3.47;2.97;;;15.20;99.90;;;;;;5060669;28;19908;-86
2024/04/09 06:02:00;;;;;;;2.92;2.63;;;15.10;99.90;;;;;;5077710;28;20449;-87
2024/04/09 06:04:25;;;;;;;2.92;2.17;;;15.10;99.90;;;;;;5078998;28;20024;-86
2024/04/09 06:06:51;;;;;;;3.17;2.33;;;15.10;99.90;;;;;;5067338;28;20095;-88
2024/04/09 06:09:17;;;;;;;3.25;2.20;;;15.20;99.90;;;;;;5100069;28;20024;-87
2024/04/09 06:11:43;;;;;;;4.75;2.50;;;15.20;99.90;;;;;;5084069;28;20047;-85
2024/04/09 06:14:09;;;;;;;4.32;2.42;;;15.20;99.90;;;;;;5096045;28;20039;-87
2024/04/09 06:16:37;;;;;;;2.80;2.33;;;15.20;99.90;;;;;;5062630;28;20036;-86
2024/04/09 06:19:03;;;;;;;3.35;2.63;;;15.20;99.90;;;;;;5060243;28;20076;-88
2024/04/09 06:21:29;;;;;;;2.30;2.00;;;15.10;99.90;;;;;;5076704;28;20122;-87
2024/04/09 06:23:54;;;;;;;2.17;1.98;;;15.10;99.90;;;;;;5059812;28;20544;-86
2024/04/09 06:26:20;;;;;;;3.10;1.98;;;15.10;99.90;;;;;;5076420;28;20531;-86
2024/04/09 06:28:46;;;;;;;4.60;2.25;;;15.10;99.90;;;;;;5094266;28;20488;-87
2024/04/09 06:31:12;;;;;;;1.73;1.60;;;15.00;99.90;;;;;;5076120;28;20048;-88
2024/04/09 06:33:40;;;;;;;2.25;1.55;;;15.00;99.90;;;;;;5094176;28;20023;-86
2024/04/09 06:36:06;;;;;;;1.80;1.45;;;15.00;99.90;;;;;;5076401;28;20107;-87
2024/04/09 06:38:31;;;;;;;1.33;1.10;;;14.90;99.90;;;;;;5060289;28;20047;-86
2024/04/09 06:40:57;;;;;;;2.03;1.20;;;14.90;99.90;;;;;;5094480;28;20016;-85
2024/04/09 06:43:23;;;;;;;2.30;1.15;;;14.80;99.90;;;;;;5059915;28;20514;-85
2024/04/09 06:45:49;;;;;;;2.58;1.10;;;14.90;99.90;;;;;;5078107;28;20120;-86
2024/04/09 06:48:15;;;;;;;1.33;1.17;;;14.90;99.90;;;;;;5081058;28;20043;-87
2024/04/09 06:50:41;;;;;;;3.72;1.60;;;14.80;99.90;;;;;;5082004;28;20040;-86
2024/04/09 06:53:07;;;;;;;1.63;1.35;;;14.90;99.90;;;;;;5082756;28;20375;-85
2024/04/09 06:55:32;;;;;;;2.85;1.50;;;14.80;99.90;;;;;;5083846;28;20020;-85
2024/04/09 06:57:58;;;;;;;2.28;1.10;;;14.80;99.90;;;;;;5075384;28;20470;-87
2024/04/09 07:00:25;;;;;;;1.88;1.15;;;14.80;99.90;;;;;;5093233;28;20020;-87
2024/04/09 07:02:52;;;;;;;3.53;1.15;;;14.80;99.90;;;;;;5090097;28;20115;-86
2024/04/09 07:05:19;;;;;;;2.00;1.00;;;14.70;99.90;;;;;;5089775;28;20020;-86
2024/04/09 07:07:44;;;;;;;2.85;1.30;;;14.60;99.90;;;;;;5080840;28;20044;-86
2024/04/09 07:10:12;;;;;;;4.82;1.02;;;14.50;99.90;;;;;;5080183;28;20052;-87
2024/04/09 07:12:38;;;;;;;5.05;1.10;;;14.50;99.90;;;;;;5080177;28;20063;-87
2024/04/09 07:15:04;;;;;;;3.67;1.00;;;14.40;99.90;;;;;;5079930;28;20052;-85
2024/04/09 07:17:32;;;;;;;3.38;0.90;;;14.40;99.90;;;;;;5062839;28;20028;-86
2024/04/09 07:20:01;;;;;;;3.92;0.90;;;14.20;99.90;;;;;;5063297;28;20024;-86
2024/04/09 07:22:29;;;;;;;1.50;0.80;;;14.10;99.90;;;;;;5079466;28;20035;-87
2024/04/09 07:24:58;;;;;;;1.90;0.70;;;14.00;99.90;;;;;;5097505;28;20024;-87
2024/04/09 07:27:23;;;;;;;2.10;0.70;;;14.00;99.90;;;;;;5080063;28;20371;-86
2024/04/09 07:29:51;;;;;;;3.20;0.85;;;14.00;99.90;;;;;;5097425;28;20050;-86
2024/04/09 07:32:17;;;;;;;4.30;1.05;;;14.00;99.90;;;;;;5063147;28;20024;-86
2024/04/09 07:34:45;;;;;;;2.25;0.75;;;14.00;99.90;;;;;;5079149;28;20491;-86
2024/04/09 07:37:11;;;;;;;5.97;1.17;;;14.00;99.90;;;;;;5063169;28;20038;-86
2024/04/09 07:39:36;;;;;;;2.67;0.85;;;13.90;99.90;;;;;;5063690;28;20040;-87
2024/04/09 07:42:02;;;;;;;4.20;1.00;;;13.90;99.90;;;;;;5081934;28;20535;-87
2024/04/09 07:44:28;;;;;;;4.15;1.00;;;13.80;99.90;;;;;;5069143;28;20408;-85
2024/04/09 07:46:54;;;;;;;3.58;0.90;;;13.80;99.90;;;;;;5060531;28;20020;-86
2024/04/09 07:49:20;;;;;;;2.15;0.75;;;13.80;99.90;;;;;;5103599;28;20038;-86
2024/04/09 07:51:46;;;;;;;3.17;1.00;;;13.80;99.90;;;;;;5087033;28;20031;-85
2024/04/09 07:54:12;;;;;;;2.30;1.00;;;13.80;99.90;;;;;;5087121;28;20016;-86
2024/04/09 07:56:38;;;;;;;3.40;1.10;;;13.70;99.90;;;;;;5097249;28;20012;-87
2024/04/09 07:59:03;;;;;;;4.03;1.00;;;13.70;99.90;;;;;;5062477;28;20074;-87
2024/04/09 08:01:30;;;;;;;3.70;0.95;;;13.80;99.90;;;;;;5061921;28;20032;-85
2024/04/09 08:03:56;;;;;;;3.92;0.75;;;13.80;99.90;;;;;;5079399;28;20067;-85
2024/04/09 08:06:24;;;;;;;5.22;1.08;;;13.80;99.90;;;;;;5079313;28;20031;-87
2024/04/09 08:08:51;;;;;;;2.67;0.98;;;13.80;99.90;;;;;;5062387;28;20024;-86
2024/04/09 08:11:17;;;;;;;2.10;0.90;;;13.80;99.90;;;;;;5046139;28;20024;-86
2024/04/09 08:13:42;;;;;;;2.88;0.93;;;13.80;99.90;;;;;;5096994;28;20464;-87
2024/04/09 08:16:08;;;;;;;3.55;0.90;;;13.90;99.90;;;;;;5078713;28;20058;-85
2024/04/09 08:18:36;;;;;;;3.92;0.80;;;13.90;99.90;;;;;;5062395;28;20024;-85
2024/04/09 08:21:01;;;;;;;3.53;0.90;;;13.90;99.90;;;;;;5079155;28;20032;-86
2024/04/09 08:23:27;;;;;;;3.10;1.00;;;13.90;99.90;;;;;;5078392;28;20111;-85
2024/04/09 08:25:53;;;;;;;3.47;0.90;;;13.90;99.90;;;;;;5061756;28;20506;-87
2024/04/09 08:28:19;;;;;;;1.80;0.80;;;14.00;99.90;;;;;;5062114;28;20028;-86
2024/04/09 08:30:50;;;;;;;3.90;1.10;;;14.00;99.90;;;;;;5057530;28;20059;-86
2024/04/09 08:33:17;;;;;;;2.92;1.10;;;14.00;99.90;;;;;;5074531;28;20024;-86
2024/04/09 08:35:52;;;;;;;4.30;1.08;;;14.10;99.90;;;;;;5058291;28;20461;-85
2024/04/09 08:38:20;;;;;;;3.03;1.10;;;14.10;99.90;;;;;;5058319;28;20028;-85
2024/04/09 08:40:46;;;;;;;2.35;0.75;;;14.10;99.90;;;;;;5074346;28;20102;-85
2024/04/09 08:43:15;;;;;;;3.03;0.90;;;14.20;99.90;;;;;;5057906;28;20059;-86
2024/04/09 08:45:42;;;;;;;3.72;0.90;;;14.20;99.90;;;;;;5058313;28;20029;-85
2024/04/09 08:48:10;;;;;;;2.47;0.80;;;14.20;99.90;;;;;;5074313;28;20047;-86
2024/04/09 08:50:38;;;;;;;4.03;1.00;;;14.30;99.90;;;;;;5057691;28;20383;-85
2024/04/09 08:53:06;;;;;;;5.45;1.20;;;14.30;99.90;;;;;;5073901;28;20025;-84
2024/04/09 08:55:34;;;;;;;3.08;0.98;;;14.30;99.70;;;;;;5075796;28;20031;-86
2024/04/09 08:58:03;;;;;;;3.78;1.20;;;14.40;99.70;;;;;;5075293;28;20484;-85
2024/04/09 09:00:29;;;;;;;5.60;1.15;;;14.40;99.60;;;;;;5057948;28;20040;-85
2024/04/09 09:02:54;;;;;;;2.78;1.08;;;14.40;99.60;;;;;;5040715;28;20029;-84
2024/04/09 09:05:22;;;;;;;4.70;1.05;;;14.50;99.60;;;;;;5058051;28;20056;-84
2024/04/09 09:08:02;;;;;;;3.67;0.70;;;14.50;99.50;;;;;;5074327;28;20059;-84
2024/04/09 09:10:28;;;;;;;3.15;1.13;;;14.50;99.50;;;;;;5073789;28;20025;-85
2024/04/09 09:12:58;;;;;;;2.83;0.80;;;14.60;99.50;;;;;;5074463;28;20028;-85
2024/04/09 09:15:24;;;;;;;3.47;1.10;;;14.70;99.30;;;;;;5074382;28;20119;-85
2024/04/09 09:17:52;;;;;;;2.58;0.75;;;14.60;99.30;;;;;;5074206;28;20068;-84
2024/04/09 09:20:22;;;;;;;4.03;1.10;;;14.70;99.30;;;;;;5074075;28;20028;-84
2024/04/09 09:22:47;;;;;;;4.78;0.95;;;14.90;99.10;;;;;;5058174;28;20028;-85
2024/04/09 09:25:15;;;;;;;2.38;1.00;;;14.90;99.00;;;;;;5080148;28;20035;-84
2024/04/09 09:27:43;;;;;;;2.25;0.82;;;14.90;98.50;;;;;;5081992;28;20017;-85
2024/04/09 09:30:11;;;;;;;4.93;1.20;;;14.80;98.50;;;;;;5081820;28;20068;-84
2024/04/09 09:32:48;;;;;;;4.63;1.33;;;14.70;98.00;;;;;;5082088;28;20050;-85
2024/04/09 09:35:17;;;;;;;3.22;0.90;;;14.70;97.90;;;;;;5093024;28;20024;-85
2024/04/09 09:37:47;;;;;;;4.30;1.17;;;14.70;98.10;;;;;;5075163;28;20017;-84
2024/04/09 09:40:15;;;;;;;3.05;0.88;;;14.70;97.80;;;;;;5073291;28;20016;-84
2024/04/09 09:42:46;;;;;;;4.50;0.98;;;14.70;97.70;;;;;;5073396;28;20013;-84
2024/04/09 09:45:13;;;;;;;2.35;0.63;;;14.70;97.60;;;;;;5072856;28;20027;-84
2024/04/09 09:47:39;;;;;;;3.85;1.20;;;14.70;97.60;;;;;;5056379;28;20036;-85
2024/04/09 09:50:11;;;;;;;3.30;1.10;;;14.70;97.40;;;;;;5073817;28;20082;-85
2024/04/09 09:52:42;;;;;;;4.97;1.08;;;14.70;97.20;;;;;;5075278;28;20411;-84
2024/04/09 09:55:09;;;;;;;6.00;1.50;;;14.70;96.80;;;;;;5080070;28;20023;-85
2024/04/09 09:57:40;;;;;;;2.03;1.08;;;14.60;96.90;;;;;;5074015;28;20016;-85
2024/04/09 10:00:09;;;;;;;3.92;1.30;;;14.60;96.90;;;;;;5073834;28;20052;-85
2024/04/09 10:02:37;;;;;;;4.18;1.10;;;14.70;97.10;;;;;;5073447;28;20017;-84
2024/04/09 10:05:04;;;;;;;3.40;0.95;;;14.70;97.00;;;;;;5074920;28;20028;-83
2024/04/09 10:07:32;;;;;;;3.72;1.00;;;14.70;96.90;;;;;;5056506;28;20036;-84
2024/04/09 10:09:57;;;;;;;2.15;0.80;;;14.70;96.80;;;;;;5073086;28;20178;-84
2024/04/09 10:12:31;;;;;;;2.90;0.70;;;14.70;97.00;;;;;;5056312;28;20460;-84
2024/04/09 10:15:08;;;;;;;3.10;0.80;;;14.80;97.00;;;;;;5072938;28;20047;-84
2024/04/09 10:17:53;;;;;;;3.55;0.68;;;14.90;97.00;;;;;;5072944;28;20123;-85
2024/04/09 10:20:25;;;;;;;1.75;0.80;;;14.90;96.90;;;;;;5072349;28;20028;-85
2024/04/09 10:22:52;;;;;;;3.40;0.90;;;14.90;96.90;;;;;;5072520;28;20017;-85
2024/04/09 10:25:19;;;;;;;1.85;0.77;;;14.90;96.70;;;;;;5073187;28;20021;-84
2024/04/09 10:27:46;;;;;;;2.05;0.77;;;14.90;96.60;;;;;;5074185;28;20077;-83
2024/04/09 10:30:16;;;;;;;2.72;0.70;;;14.80;96.60;;;;;;5072869;28;20062;-85
2024/04/09 10:35:09;;;;;;;2.15;0.85;;;14.90;96.50;;;;;;5504287;25;20498;-85
2024/04/09 10:37:37;;;;;;;3.13;1.00;;;14.90;96.20;;;;;;5492369;26;19999;-83
2024/04/09 10:40:03;;;;;;;2.80;0.80;;;14.90;96.00;;;;;;5464272;26;20067;-84
2024/04/09 10:42:28;;;;;;;3.40;0.90;;;14.90;96.00;;;;;;5470355;26;20006;-84
2024/04/09 10:44:54;;;;;;;2.30;0.77;;;14.90;95.90;;;;;;5470807;26;19998;-84
2024/04/09 10:47:20;;;;;;;2.53;1.00;;;15.00;95.90;;;;;;5472626;26;20323;-83
2024/04/09 10:49:46;;;;;;;2.25;0.77;;;15.00;95.90;;;;;;5472970;26;20334;-84
2024/04/09 10:52:12;;;;;;;2.53;0.80;;;15.00;95.90;;;;;;5470813;26;20321;-84
2024/04/09 10:54:38;;;;;;;4.18;1.35;;;15.10;95.90;;;;;;5470730;26;19991;-84
2024/04/09 10:57:04;;;;;;;4.22;1.00;;;15.20;95.90;;;;;;5470374;26;19999;-84
2024/04/09 10:59:29;;;;;;;7.13;1.42;;;15.30;95.80;;;;;;5471073;26;20349;-83
2024/04/09 11:01:56;;;;;;;1.50;0.70;;;15.30;95.60;;;;;;5473974;26;20074;-84
2024/04/09 11:04:22;;;;;;;1.23;0.55;;;15.20;95.50;;;;;;5480276;26;19990;-84
2024/04/09 11:06:52;;;;;;;1.75;0.85;;;15.20;95.30;;;;;;5529287;25;20009;-84
2024/04/09 11:09:20;;;;;;;3.03;0.90;;;15.10;95.10;;;;;;5506714;26;20001;-84
2024/04/09 11:11:46;;;;;;;2.30;0.60;;;15.10;95.20;;;;;;5495247;26;19991;-84
2024/04/09 11:14:12;;;;;;;2.55;1.08;;;15.10;95.30;;;;;;5463784;26;19991;-84
2024/04/09 11:16:48;;;;;;;2.72;0.90;;;15.10;95.40;;;;;;5422852;26;20068;-84
2024/04/09 11:19:25;;;;;;;2.80;1.05;;;15.10;95.40;;;;;;5442151;26;19999;-85
2024/04/09 11:21:51;;;;;;;2.47;0.80;;;15.20;95.50;;;;;;5470989;26;20310;-85
2024/04/09 11:24:17;;;;;;;2.72;0.60;;;15.30;95.20;;;;;;5469688;26;20311;-84
2024/04/09 11:26:45;;;;;;;2.72;0.80;;;15.30;95.10;;;;;;5470108;26;20006;-84
2024/04/09 11:29:23;;;;;;;3.03;0.98;;;15.30;95.00;;;;;;5499706;26;20002;-84
2024/04/09 11:31:49;;;;;;;7.10;1.10;;;15.20;94.30;;;;;;5471898;26;19995;-85
2024/04/09 11:34:29;;;;;;;4.18;0.77;;;15.20;94.60;;;;;;5422781;26;19991;-83
2024/04/09 11:36:56;;;;;;;1.77;0.85;;;15.30;94.60;;;;;;5403797;26;20010;-83
2024/04/09 11:39:23;;;;;;;5.32;1.13;;;15.30;94.60;;;;;;5374260;26;20438;-84
2024/04/09 11:41:49;;;;;;;2.15;0.55;;;15.20;94.50;;;;;;5466666;26;19995;-85
2024/04/09 11:44:22;;;;;;;2.15;0.60;;;15.30;94.90;;;;;;5400608;26;20007;-84
2024/04/09 11:46:49;;;;;;;1.45;0.50;;;15.30;94.50;;;;;;5420114;26;20072;-85
2024/04/09 11:49:15;;;;;;;2.63;0.73;;;15.40;94.50;;;;;;5388322;26;19999;-84
2024/04/09 11:51:41;;;;;;;2.25;0.70;;;15.50;94.60;;;;;;5387865;26;20013;-85
2024/04/09 11:54:07;;;;;;;3.38;0.88;;;15.60;94.50;;;;;;5419671;26;20001;-85
2024/04/09 11:56:38;;;;;;;1.88;0.63;;;15.70;94.30;;;;;;5428723;26;20002;-84
2024/04/09 11:59:06;;;;;;;1.75;0.68;;;15.70;94.20;;;;;;5454854;26;20023;-84
2024/04/09 12:01:32;;;;;;;2.88;0.70;;;15.70;93.00;;;;;;5417651;26;20010;-84
2024/04/09 12:03:58;;;;;;;1.70;0.93;;;15.60;93.30;;;;;;5419178;26;19995;-84
2024/04/09 12:06:24;;;;;;;3.50;0.90;;;15.60;93.40;;;;;;5358746;26;20076;-85
2024/04/09 12:08:50;;;;;;;4.63;0.70;;;15.50;93.60;;;;;;5395361;26;20006;-84
2024/04/09 12:11:15;;;;;;;2.17;0.90;;;15.50;93.30;;;;;;5392243;26;20014;-84
2024/04/09 12:13:41;;;;;;;2.03;0.85;;;15.40;93.40;;;;;;5394251;26;19995;-85
2024/04/09 12:16:09;;;;;;;2.30;0.70;;;15.40;93.50;;;;;;5394332;26;20048;-84
2024/04/09 12:18:35;;;;;;;2.70;0.82;;;15.40;93.30;;;;;;5388282;26;20010;-83
2024/04/09 12:21:04;;;;;;;3.65;0.95;;;15.40;93.00;;;;;;5417081;26;20022;-84
2024/04/09 12:23:32;;;;;;;2.22;0.60;;;15.40;93.00;;;;;;5399481;26;20003;-84
2024/04/09 12:25:59;;;;;;;3.85;0.90;;;15.40;92.90;;;;;;5423699;26;19995;-84
2024/04/09 12:28:24;;;;;;;0.95;0.50;;;15.30;93.00;;;;;;5423778;26;20009;-83
2024/04/09 12:30:51;;;;;;;1.80;0.88;;;15.30;93.10;;;;;;5414770;26;19991;-84
2024/04/09 12:33:19;;;;;;;2.22;0.60;;;15.20;93.10;;;;;;5463325;26;19994;-83
2024/04/09 12:35:45;;;;;;;3.03;0.77;;;15.20;93.20;;;;;;5465174;26;19994;-84
2024/04/09 12:38:10;;;;;;;2.88;0.77;;;15.20;93.20;;;;;;5461040;26;20002;-84
2024/04/09 12:40:36;;;;;;;5.63;0.90;;;15.20;93.10;;;;;;5463346;26;20001;-84
2024/04/09 12:43:04;;;;;;;2.97;0.90;;;15.30;93.30;;;;;;5474478;26;19999;-83
2024/04/09 12:45:30;;;;;;;3.47;0.80;;;15.30;93.30;;;;;;5477584;26;20002;-84
2024/04/09 12:47:56;;;;;;;10.40;1.05;;;15.40;93.50;;;;;;5478171;26;19990;-85
2024/04/09 12:50:21;;;;;;;1.70;0.60;;;15.40;93.50;;;;;;5411942;26;20003;-84